Time;durP1;ratioP1;P1;durP2;ratioP2;P2;SDS_P1;SDS_P2;PMS_P1;PMS_P2;Temp;Humidity;BMP_temperature;BMP_pressure;BME280_temperature;BME280_humidity;BME280_pressure;Samples;Min_cycle;Max_cycle;Signal;HPM_P1;HPM_P2
2022/08/07 00:00:37;;;;;;;;;4.00;2.00;;;;;22.34;32.38;101957.25;4987704;27;45327;-67
2022/08/07 00:03:02;;;;;;;;;3.00;3.00;;;;;22.40;32.54;101966.84;4987730;27;45373;-67
2022/08/07 00:05:28;;;;;;;;;2.67;2.67;;;;;22.35;32.53;101945.66;4987341;27;46094;-67
2022/08/07 00:07:54;;;;;;;;;2.67;2.00;;;;;22.42;32.39;101957.00;4987105;27;46461;-67
2022/08/07 00:10:28;;;;;;;;;2.00;2.00;;;;;22.42;32.28;101952.56;4987188;27;45532;-67
2022/08/07 00:12:55;;;;;;;;;2.33;2.33;;;;;22.34;32.38;101943.91;4999461;27;46429;-67
2022/08/07 00:15:20;;;;;;;;;2.00;2.00;;;;;22.38;32.49;101953.56;4968436;27;46016;-68
2022/08/07 00:17:46;;;;;;;;;3.00;3.00;;;;;22.39;32.40;101957.97;5016318;27;45607;-66
2022/08/07 00:20:11;;;;;;;;;2.00;2.00;;;;;22.37;32.47;101945.59;5083149;27;45733;-68
2022/08/07 00:22:38;;;;;;;;;3.00;3.00;;;;;22.38;32.53;101950.03;5008730;27;45559;-66
2022/08/07 00:25:07;;;;;;;;;3.00;3.00;;;;;22.36;32.50;101943.88;5008244;27;45299;-66
2022/08/07 00:27:35;;;;;;;;;3.00;3.00;;;;;22.34;32.61;101941.22;5032032;27;48460;-67
2022/08/07 00:30:22;;;;;;;;;3.00;3.00;;;;;22.33;32.83;101949.25;4987223;27;45874;-66
2022/08/07 00:32:50;;;;;;;;;4.00;4.00;;;;;22.34;32.89;101943.91;5045943;27;45551;-66
2022/08/07 00:35:20;;;;;;;;;2.33;2.33;;;;;22.31;32.84;101948.47;5099099;27;45517;-68
2022/08/07 00:37:46;;;;;;;;;3.33;3.33;;;;;22.24;32.91;101923.72;5057401;27;46718;-67
2022/08/07 00:40:14;;;;;;;;;3.33;3.33;;;;;22.24;32.85;101929.06;5000757;27;45442;-69
2022/08/07 00:42:41;;;;;;;;;2.67;2.00;;;;;22.29;32.98;101940.47;4987314;27;45619;-68
2022/08/07 00:45:09;;;;;;;;;2.00;2.00;;;;;22.28;33.03;101938.75;4988219;27;45403;-67
2022/08/07 00:47:36;;;;;;;;;2.00;2.00;;;;;22.25;32.97;101925.47;4987277;27;46366;-68
2022/08/07 00:50:09;;;;;;;;;4.67;4.00;;;;;22.24;33.51;101934.41;4974660;27;45355;-67
2022/08/07 00:52:36;;;;;;;;;4.33;3.33;;;;;22.19;33.35;101937.16;5014040;27;45631;-67
2022/08/07 00:55:02;;;;;;;;;4.00;4.00;;;;;22.05;33.48;101920.66;5008820;27;45835;-68
2022/08/07 00:57:28;;;;;;;;;3.00;3.00;;;;;22.07;33.54;101923.25;4987533;27;45946;-67
2022/08/07 00:59:54;;;;;;;;;4.00;4.00;;;;;22.10;33.22;101929.41;4986745;27;45461;-68
2022/08/07 01:02:21;;;;;;;;;4.00;4.00;;;;;22.05;33.64;101920.66;4968840;27;45481;-69
2022/08/07 01:04:47;;;;;;;;;5.67;4.67;;;;;22.01;33.68;101911.84;4986200;27;45639;-67
2022/08/07 01:07:13;;;;;;;;;3.00;3.00;;;;;21.98;33.71;101914.59;5042715;27;45882;-66
2022/08/07 01:09:40;;;;;;;;;3.00;3.00;;;;;21.98;33.73;101922.59;5031844;27;45692;-67
2022/08/07 01:12:07;;;;;;;;;4.00;2.67;;;;;21.91;33.86;101915.69;5007018;27;45869;-67
2022/08/07 01:14:35;;;;;;;;;3.00;3.00;;;;;21.92;33.98;101911.22;4970273;27;45709;-67
2022/08/07 01:17:01;;;;;;;;;3.00;3.00;;;;;21.94;34.02;101915.59;4968610;27;45490;-68
2022/08/07 01:19:29;;;;;;;;;3.33;3.00;;;;;21.93;34.12;101913.84;4986210;27;45358;-67
2022/08/07 01:21:59;;;;;;;;;4.00;3.00;;;;;21.86;34.31;101912.28;4985628;27;45673;-67
2022/08/07 01:24:28;;;;;;;;;5.00;3.00;;;;;21.82;34.03;101899.91;5079093;27;45440;-68
2022/08/07 01:26:54;;;;;;;;;2.00;2.00;;;;;21.89;33.88;101914.84;5014529;27;46543;-66
2022/08/07 01:29:23;;;;;;;;;2.67;2.67;;;;;21.88;34.31;101910.44;4986082;27;45796;-65
2022/08/07 01:31:50;;;;;;;;;3.00;3.00;;;;;21.86;34.06;101906.94;4989067;27;45464;-67
2022/08/07 01:34:19;;;;;;;;;2.00;2.00;;;;;21.83;34.47;101900.78;4991826;27;45399;-69
2022/08/07 01:36:47;;;;;;;;;4.00;2.33;;;;;21.55;34.39;101885.53;4991304;27;46165;-66
2022/08/07 01:39:12;;;;;;;;;4.00;2.00;;;;;21.69;34.53;101901.16;4991489;27;45465;-67
2022/08/07 01:41:39;;;;;;;;;3.00;3.00;;;;;21.71;34.60;101905.56;4991855;27;45726;-67
2022/08/07 01:44:05;;;;;;;;;3.00;3.00;;;;;21.72;34.44;101904.63;4992176;27;45434;-68
2022/08/07 01:46:31;;;;;;;;;3.33;3.33;;;;;21.74;34.46;101912.59;4991361;27;45360;-67
2022/08/07 01:48:57;;;;;;;;;4.00;4.00;;;;;21.66;34.65;101903.91;4992244;27;45408;-67
2022/08/07 01:51:24;;;;;;;;;3.67;3.00;;;;;21.60;34.58;101905.81;4974017;28;45746;-68
2022/08/07 01:53:56;;;;;;;;;3.33;3.33;;;;;21.59;34.72;101896.09;4991871;27;45819;-68
2022/08/07 01:56:47;;;;;;;;;3.33;3.00;;;;;21.56;35.08;101897.94;4995659;27;45529;-67
2022/08/07 01:59:35;;;;;;;;;4.33;3.00;;;;;21.48;34.87;101889.28;4992873;27;45647;-68
2022/08/07 02:02:09;;;;;;;;;3.33;3.33;;;;;21.49;35.25;101907.00;4977733;27;45353;-67
2022/08/07 02:04:43;;;;;;;;;3.33;3.00;;;;;21.31;35.67;101905.66;5043744;27;45819;-66
2022/08/07 18:54:20;;;;;;;;;137.33;124.33;;;;;24.90;30.36;101629.06;5053066;28;45599;-68
2022/08/07 18:56:55;;;;;;;;;47.67;37.67;;;;;25.07;30.51;101625.63;5047848;28;45579;-69
2022/08/07 18:59:21;;;;;;;;;65.50;52.25;;;;;25.21;30.77;101633.09;5047182;28;45554;-68
2022/08/07 19:02:04;;;;;;;;;60.25;46.75;;;;;25.36;30.42;101621.66;5048218;28;45652;-69
2022/08/07 19:04:57;;;;;;;;;40.33;33.00;;;;;25.51;30.07;101630.81;5045600;28;46783;-69
2022/08/07 19:07:29;;;;;;;;;27.00;25.67;;;;;25.64;30.54;101647.19;5050313;28;45288;-67
2022/08/07 19:10:11;;;;;;;;;7.00;7.00;;;;;25.67;30.49;101636.31;5050743;28;45525;-66
2022/08/07 19:12:45;;;;;;;;;8.00;6.67;;;;;25.66;30.41;101629.22;5047632;28;45306;-67
2022/08/07 19:15:22;;;;;;;;;4.00;4.00;;;;;25.78;30.64;101635.81;5047127;28;46105;-67
2022/08/07 19:18:11;;;;;;;;;14.00;13.00;;;;;25.63;29.86;101629.38;5040859;28;45516;-68
2022/08/07 19:21:02;;;;;;;;;14.33;10.33;;;;;25.71;29.96;101648.66;5049069;28;45539;-70
2022/08/07 19:23:36;;;;;;;;;8.33;8.33;;;;;25.74;29.19;101659.22;5043300;28;46076;-70
2022/08/07 19:26:03;;;;;;;;;6.33;4.67;;;;;25.78;29.65;101654.59;5048291;28;45700;-67
2022/08/07 19:28:44;;;;;;;;;7.00;5.00;;;;;25.70;29.19;101638.88;5045136;28;45391;-67
2022/08/07 19:31:16;;;;;;;;;4.67;4.67;;;;;25.91;29.43;101665.66;5042212;28;45409;-68
2022/08/07 19:33:44;;;;;;;;;4.00;4.00;;;;;25.69;29.22;101634.44;5046897;28;45673;-69
2022/08/07 19:36:14;;;;;;;;;9.00;6.00;;;;;25.81;29.42;101659.81;5048296;28;45473;-68
2022/08/07 19:38:45;;;;;;;;;5.67;5.67;;;;;25.84;29.70;101674.91;5043045;28;45469;-69
2022/08/07 19:41:15;;;;;;;;;7.00;4.67;;;;;25.81;29.61;101665.19;5040188;28;45527;-68
2022/08/07 19:43:44;;;;;;;;;7.33;5.33;;;;;25.90;29.58;101674.66;5043709;28;45516;-69
2022/08/07 19:46:14;;;;;;;;;7.00;5.33;;;;;25.74;29.44;101647.63;5047003;28;46001;-67
2022/08/07 19:48:47;;;;;;;;;6.00;4.33;;;;;25.80;30.02;101674.19;5043516;28;45346;-68
2022/08/07 19:51:16;;;;;;;;;5.00;5.00;;;;;25.77;29.43;101663.59;5046744;28;46624;-68
2022/08/07 19:53:54;;;;;;;;;6.33;5.33;;;;;25.85;29.80;101676.66;5063215;28;45945;-71
2022/08/07 19:56:22;;;;;;;;;4.33;4.33;;;;;25.86;29.56;101675.69;5066707;28;46193;-68
2022/08/07 19:58:58;;;;;;;;;5.00;5.00;;;;;25.82;29.54;101672.31;5067885;28;45768;-70
2022/08/07 20:01:26;;;;;;;;;3.75;3.75;;;;;25.73;29.81;101659.31;5066049;28;45561;-69
2022/08/07 20:03:55;;;;;;;;;5.00;5.00;;;;;25.84;29.56;101682.94;5061462;28;45556;-71
2022/08/07 20:06:28;;;;;;;;;6.00;6.00;;;;;25.87;29.45;101686.41;5053271;28;45436;-71
2022/08/07 20:09:00;;;;;;;;;5.00;4.00;;;;;25.93;29.80;101695.97;5046476;28;46022;-71
2022/08/07 20:11:28;;;;;;;;;4.00;4.00;;;;;25.93;29.56;101702.19;5052648;28;45451;-69
2022/08/07 20:13:56;;;;;;;;;4.00;4.00;;;;;25.84;29.59;101680.25;5052985;28;45633;-68
2022/08/07 20:16:28;;;;;;;;;3.67;3.67;;;;;25.94;29.25;101695.03;5053355;28;45455;-69
2022/08/07 20:18:55;;;;;;;;;3.25;3.25;;;;;25.93;29.56;101698.66;5051007;28;45584;-71
2022/08/07 20:21:21;;;;;;;;;3.00;3.00;;;;;25.90;29.48;101696.13;5029526;28;45878;-67
2022/08/07 20:24:02;;;;;;;;;3.50;3.50;;;;;25.91;29.79;101704.13;5053884;28;45437;-69
2022/08/07 20:26:34;;;;;;;;;3.00;3.00;;;;;25.84;29.45;101685.63;5052492;28;45525;-67
2022/08/07 20:29:05;;;;;;;;;4.00;4.00;;;;;25.94;29.71;101706.66;5046646;28;45633;-69
2022/08/07 20:31:32;;;;;;;;;4.00;4.00;;;;;25.90;29.51;101699.69;5055043;28;45722;-68
2022/08/07 20:34:00;;;;;;;;;3.00;3.00;;;;;25.84;29.90;101688.31;5057314;28;45465;-70
2022/08/07 20:36:28;;;;;;;;;4.25;2.50;;;;;25.95;29.63;101704.81;5053019;28;45700;-70
2022/08/07 20:39:02;;;;;;;;;4.00;3.00;;;;;25.86;29.54;101699.84;5054681;28;45550;-67
2022/08/07 20:41:30;;;;;;;;;6.25;3.50;;;;;25.84;29.69;101697.25;5051038;28;45765;-73
2022/08/07 20:43:59;;;;;;;;;5.67;4.67;;;;;25.92;30.33;101718.41;5054145;28;45438;-70
2022/08/07 20:46:27;;;;;;;;;4.33;4.33;;;;;25.90;29.86;101714.91;5057462;28;45782;-71
2022/08/07 20:48:58;;;;;;;;;3.00;3.00;;;;;25.77;29.57;101701.19;5035772;28;45564;-68
2022/08/07 20:51:25;;;;;;;;;4.00;4.00;;;;;25.84;29.83;101717.84;5049351;28;45369;-70
2022/08/07 20:53:53;;;;;;;;;5.67;5.00;;;;;25.67;29.91;101713.25;5054148;28;45600;-69
2022/08/07 20:56:27;;;;;;;;;4.00;4.00;;;;;25.57;30.21;101691.34;5053481;28;45523;-67
2022/08/07 20:59:00;;;;;;;;;3.33;3.33;;;;;25.77;30.06;101734.25;5034841;28;45499;-72
2022/08/07 21:01:28;;;;;;;;;4.00;4.00;;;;;25.56;30.45;101720.00;5034992;28;45655;-71
2022/08/07 21:03:59;;;;;;;;;4.33;4.00;;;;;25.40;30.26;101700.16;5052680;28;45491;-72
2022/08/07 21:06:27;;;;;;;;;3.00;3.00;;;;;25.61;30.45;101738.56;5050649;28;45872;-73
2022/08/07 21:09:10;;;;;;;;;4.00;4.00;;;;;25.46;30.25;101721.34;5053891;28;45592;-75
2022/08/07 21:11:38;;;;;;;;;5.00;5.00;;;;;25.57;30.57;101748.53;5049582;28;45497;-74
2022/08/07 21:14:26;;;;;;;;;3.33;3.33;;;;;25.54;30.29;101742.47;5034793;28;45497;-71
2022/08/07 21:16:58;;;;;;;;;3.67;3.67;;;;;25.52;30.16;101744.34;5050781;28;45649;-72
2022/08/07 21:19:30;;;;;;;;;3.00;3.00;;;;;25.53;30.20;101740.69;5052066;28;45514;-71
2022/08/07 21:21:58;;;;;;;;;3.67;3.67;;;;;25.43;30.39;101724.16;5028082;28;45315;-68
2022/08/07 21:24:45;;;;;;;;;2.50;2.50;;;;;25.49;30.09;101734.63;5053103;28;45477;-68
2022/08/07 21:27:35;;;;;;;;;2.00;2.00;;;;;25.50;30.17;101741.72;5052188;28;46002;-67
2022/08/07 21:30:10;;;;;;;;;3.50;3.00;;;;;25.48;30.74;101740.91;5040911;28;45809;-70
2022/08/07 21:33:13;;;;;;;;;3.75;3.00;;;;;25.49;30.56;101747.16;5050664;28;45558;-72
2022/08/07 21:35:45;;;;;;;;;3.00;3.00;;;;;25.35;30.22;101726.31;5042645;28;45422;-68
2022/08/07 21:38:36;;;;;;;;;4.00;4.00;;;;;25.47;30.34;101751.72;5052550;28;45720;-68
2022/08/07 21:41:14;;;;;;;;;3.00;2.00;;;;;25.42;30.29;101741.19;5045540;28;45694;-72
2022/08/07 21:43:51;;;;;;;;;4.00;3.00;;;;;25.44;30.35;101751.84;5051052;28;45612;-72
2022/08/07 21:46:51;;;;;;;;;4.67;3.00;;;;;25.29;30.04;101754.25;5051970;28;45652;-68
2022/08/07 21:49:47;;;;;;;;;6.00;4.00;;;;;25.20;30.24;101756.47;5038453;28;46189;-71
2022/08/07 21:52:25;;;;;;;;;3.00;3.00;;;;;25.09;30.43;101754.22;5045921;28;45356;-71
2022/08/07 21:55:19;;;;;;;;;6.00;3.00;;;;;25.08;30.61;101749.78;5050584;28;45584;-71
2022/08/07 21:58:09;;;;;;;;;3.33;3.33;;;;;25.09;30.16;101757.78;5051216;28;45402;-69
2022/08/07 22:00:38;;;;;;;;;3.33;3.00;;;;;25.00;30.46;101742.06;5051294;28;45817;-69
2022/08/07 22:03:12;;;;;;;;;2.33;2.33;;;;;25.10;30.05;101758.63;5051613;28;45426;-67
2022/08/07 22:06:05;;;;;;;;;2.00;2.00;;;;;25.06;29.94;101757.91;5051071;28;45623;-69
2022/08/07 22:08:58;;;;;;;;;2.00;2.00;;;;;25.07;30.06;101759.63;5037846;28;45580;-67
2022/08/07 22:11:26;;;;;;;;;3.25;3.00;;;;;25.06;29.84;101757.03;5046780;28;46274;-68
2022/08/07 22:13:54;;;;;;;;;3.67;3.33;;;;;25.09;30.18;101759.59;5050536;28;45728;-68
2022/08/07 22:16:32;;;;;;;;;3.00;3.00;;;;;25.09;29.66;101770.31;5051409;28;45579;-68
2022/08/07 22:19:22;;;;;;;;;3.33;3.00;;;;;25.07;29.75;101781.09;5051804;28;46026;-67
2022/08/07 22:21:57;;;;;;;;;2.00;2.00;;;;;25.07;29.98;101782.91;5049296;28;45536;-68
2022/08/07 22:24:36;;;;;;;;;2.33;2.33;;;;;25.07;29.71;101786.44;5051588;28;45502;-70
2022/08/07 22:27:25;;;;;;;;;4.00;3.33;;;;;25.01;30.13;101786.72;5028116;28;45615;-71
2022/08/07 22:30:05;;;;;;;;;2.00;2.00;;;;;25.03;30.12;101787.50;5042256;28;45403;-72
2022/08/07 22:32:52;;;;;;;;;4.00;3.00;;;;;25.01;29.74;101785.81;5041758;28;46591;-70
2022/08/07 22:35:18;;;;;;;;;2.33;2.33;;;;;25.00;29.68;101794.81;5045885;28;45777;-72
2022/08/07 22:38:06;;;;;;;;;2.00;2.00;;;;;24.97;29.91;101794.00;5049968;28;45782;-71
2022/08/07 22:40:48;;;;;;;;;4.33;2.67;;;;;24.71;30.01;101754.88;5051651;28;45360;-72
2022/08/07 22:43:23;;;;;;;;;4.00;3.00;;;;;24.83;30.17;101785.66;5032348;28;47984;-69
2022/08/07 22:46:25;;;;;;;;;3.00;3.00;;;;;24.73;30.13;101773.59;5049787;28;45931;-68
2022/08/07 22:49:03;;;;;;;;;3.00;2.00;;;;;24.78;30.23;101797.50;5048832;28;46088;-71
2022/08/07 22:51:54;;;;;;;;;3.00;3.00;;;;;24.77;30.15;101810.00;5046819;28;45540;-70
2022/08/07 22:54:47;;;;;;;;;2.00;2.00;;;;;24.69;30.64;101802.28;5050125;28;46509;-73
2022/08/07 22:57:35;;;;;;;;;3.00;2.00;;;;;24.60;30.52;101791.94;5051333;28;45513;-72
2022/08/07 23:00:12;;;;;;;;;2.00;2.00;;;;;24.58;30.82;101792.94;5044661;28;45737;-70
2022/08/07 23:03:15;;;;;;;;;1.33;1.33;;;;;24.59;31.27;101794.72;5048385;28;45497;-73
2022/08/07 23:06:03;;;;;;;;;2.00;2.00;;;;;24.55;31.42;101801.97;5033909;28;46741;-69
2022/08/07 23:08:38;;;;;;;;;3.33;2.00;;;;;24.50;31.72;101801.28;5052608;28;46502;-69
2022/08/07 23:11:28;;;;;;;;;2.25;2.25;;;;;24.47;31.63;101782.66;5050804;28;45351;-69
2022/08/07 23:14:32;;;;;;;;;2.67;2.00;;;;;24.49;31.49;101800.41;5031358;28;45485;-68
2022/08/07 23:17:22;;;;;;;;;5.00;4.00;;;;;24.46;31.43;101799.63;4977697;28;45410;-72
2022/08/07 23:20:24;;;;;;;;;3.00;1.67;;;;;24.43;31.58;101797.06;5044176;28;45935;-69
2022/08/07 23:23:12;;;;;;;;;2.00;2.00;;;;;24.45;32.19;101803.25;5051737;28;45533;-67
2022/08/07 23:26:24;;;;;;;;;2.33;2.00;;;;;24.33;32.19;101797.44;5053829;28;45421;-68
2022/08/07 23:29:03;;;;;;;;;2.00;2.00;;;;;24.40;32.17;101807.91;5008327;28;45420;-70
2022/08/07 23:32:01;;;;;;;;;2.00;2.00;;;;;24.36;32.11;101799.13;5045191;28;46060;-71
2022/08/07 23:34:45;;;;;;;;;2.00;2.00;;;;;24.31;32.86;101803.78;5053139;28;45470;-71
2022/08/07 23:37:32;;;;;;;;;1.67;1.67;;;;;24.25;32.88;101804.91;5048735;28;45319;-70
2022/08/07 23:40:16;;;;;;;;;3.67;2.00;;;;;24.21;32.88;101800.59;5051930;28;45769;-70
2022/08/07 23:43:22;;;;;;;;;2.00;2.00;;;;;24.19;32.92;101801.56;5052343;28;45483;-69
2022/08/07 23:46:11;;;;;;;;;2.00;2.00;;;;;24.15;33.46;101802.63;5051182;28;45390;-72
2022/08/07 23:49:11;;;;;;;;;2.00;1.33;;;;;24.11;33.11;101797.38;5048931;28;45367;-67
2022/08/07 23:51:40;;;;;;;;;2.00;2.00;;;;;24.06;33.43;101783.31;5053940;28;45679;-68
2022/08/07 23:54:35;;;;;;;;;3.67;3.67;;;;;24.08;33.68;101799.28;5039538;28;45472;-73
2022/08/07 23:57:35;;;;;;;;;3.00;1.00;;;;;24.01;33.77;101784.41;5056441;28;45517;-70
